createdAt,value
2022-09-20T03:00:54.662Z,10.78
2022-09-20T03:03:32.594Z,10.81
2022-09-20T03:06:09.884Z,10.80
2022-09-20T03:08:44.892Z,10.81
2022-09-20T03:11:21.530Z,10.86
2022-09-20T03:14:07.146Z,10.90
2022-09-20T03:37:03.536Z,11.00
2022-09-20T04:39:57.658Z,10.99
2022-09-20T04:43:35.307Z,11.00
2022-09-20T04:50:19.010Z,10.95
2022-09-20T04:53:12.287Z,10.94
2022-09-20T04:55:49.412Z,10.93
2022-09-20T04:58:55.154Z,10.92
2022-09-20T05:02:14.329Z,10.90
2022-09-20T05:05:15.976Z,10.90
2022-09-20T05:08:25.753Z,10.90
2022-09-20T05:11:30.328Z,10.89
2022-09-20T05:14:17.145Z,10.92
2022-09-20T05:17:02.626Z,10.92
2022-09-20T05:19:39.531Z,10.96
2022-09-20T05:22:26.394Z,11.00
2022-09-20T05:25:27.973Z,11.04
2022-09-20T05:28:02.391Z,11.02
2022-09-20T05:30:37.972Z,10.99
2022-09-20T05:33:16.521Z,10.99
2022-09-20T05:35:54.363Z,10.96
2022-09-20T05:41:14.248Z,10.90
2022-09-20T05:43:53.752Z,10.88
2022-09-20T05:46:34.477Z,10.89
2022-09-20T05:49:13.350Z,10.89
2022-09-20T05:52:00.957Z,10.87
2022-09-20T05:55:01.329Z,10.88
2022-09-20T05:57:40.696Z,10.83
2022-09-20T06:00:15.585Z,10.82
2022-09-20T06:02:53.377Z,10.83
2022-09-20T06:05:33.280Z,10.81
2022-09-20T06:08:17.706Z,10.80
2022-09-20T06:11:01.735Z,10.79
2022-09-20T06:13:50.919Z,10.79
2022-09-20T06:16:29.388Z,10.81
2022-09-20T06:19:06.068Z,10.77
2022-09-20T06:21:46.674Z,10.75
2022-09-20T06:24:30.555Z,10.75
2022-09-20T06:27:00.627Z,10.76
2022-09-20T06:29:33.772Z,10.77
2022-09-20T06:32:03.053Z,10.81
2022-09-20T06:34:31.229Z,10.80
2022-09-20T06:37:27.694Z,10.77
2022-09-20T06:40:18.637Z,10.74
2022-09-20T06:42:46.156Z,10.72
2022-09-20T06:45:13.828Z,10.72
2022-09-20T06:47:42.889Z,10.72
2022-09-20T06:50:16.782Z,10.73
2022-09-20T06:52:45.636Z,10.76
2022-09-20T06:55:20.000Z,10.78
2022-09-20T06:57:47.654Z,10.79
2022-09-20T07:00:16.328Z,10.82
2022-09-20T07:02:45.356Z,10.85
2022-09-20T07:05:15.625Z,10.89
2022-09-20T07:07:44.000Z,10.91
2022-09-20T07:10:14.250Z,10.93
2022-09-20T07:12:47.118Z,10.96
2022-09-20T07:18:13.804Z,11.12
2022-09-20T07:21:16.050Z,11.20
2022-09-20T07:23:46.001Z,11.24
2022-09-20T07:26:21.133Z,11.30
2022-09-20T07:28:49.450Z,11.32
2022-09-20T07:31:30.502Z,11.42
2022-09-20T07:34:00.053Z,11.61
2022-09-20T07:36:27.783Z,11.77
2022-09-20T07:38:55.945Z,11.90
2022-09-20T07:41:23.882Z,12.03
2022-09-20T07:43:52.389Z,12.14
2022-09-20T07:46:22.221Z,12.33
2022-09-20T07:48:50.141Z,12.54
2022-09-20T07:51:19.367Z,12.73
2022-09-20T07:53:51.937Z,12.89
2022-09-20T07:56:22.248Z,13.04
2022-09-20T07:58:52.522Z,13.13
2022-09-20T08:01:24.021Z,13.16
2022-09-20T08:03:55.621Z,13.19
2022-09-20T08:06:24.938Z,13.22
2022-09-20T08:08:52.530Z,13.16
2022-09-20T08:11:27.926Z,13.15
2022-09-20T08:14:05.878Z,13.24
2022-09-20T08:16:39.505Z,13.38
2022-09-20T08:19:07.210Z,13.50
2022-09-20T08:21:38.792Z,13.63
2022-09-20T08:24:06.950Z,13.77
2022-09-20T08:26:35.688Z,13.85
2022-09-20T08:29:05.176Z,13.89
2022-09-20T08:31:36.724Z,13.97
2022-09-20T08:34:06.604Z,14.11
2022-09-20T08:36:37.470Z,14.23
2022-09-20T08:41:56.704Z,14.22
2022-09-20T08:44:29.574Z,14.14
2022-09-20T08:47:07.057Z,14.04
2022-09-20T08:49:35.065Z,13.98
2022-09-20T08:52:10.301Z,14.28
2022-09-20T08:54:38.236Z,14.99
2022-09-20T08:57:14.147Z,15.71
2022-09-20T08:59:41.789Z,16.04
2022-09-20T09:02:16.482Z,16.02
2022-09-20T09:04:44.902Z,15.83
2022-09-20T09:07:16.957Z,15.63
2022-09-20T09:09:47.556Z,15.48
2022-09-20T09:12:20.233Z,15.24
2022-09-20T09:14:52.493Z,14.96
2022-09-20T09:17:27.529Z,14.74
2022-09-20T09:19:57.381Z,14.59
2022-09-20T09:22:32.200Z,14.40
2022-09-20T09:25:29.495Z,14.22
2022-09-20T09:27:58.623Z,14.17
2022-09-20T09:30:28.904Z,14.39
2022-09-20T09:33:18.214Z,14.82
2022-09-20T09:35:53.134Z,14.93
2022-09-20T09:38:24.399Z,15.01
2022-09-20T09:40:54.531Z,15.27
2022-09-20T09:43:26.998Z,15.63
2022-09-20T09:45:55.331Z,16.15
2022-09-20T09:48:26.738Z,17.81
2022-09-20T09:51:10.380Z,19.33
2022-09-20T09:53:40.329Z,20.54
2022-09-20T09:56:27.892Z,21.85
2022-09-20T09:59:12.500Z,21.66
2022-09-20T10:01:48.897Z,20.91
2022-09-20T10:04:20.811Z,20.26
2022-09-20T10:06:57.758Z,19.87
2022-09-20T10:09:41.406Z,20.27
2022-09-20T10:12:23.347Z,21.75
2022-09-20T10:15:02.724Z,23.36
2022-09-20T10:17:42.527Z,23.88
2022-09-20T10:20:28.207Z,23.87
2022-09-20T10:26:06.626Z,23.60
2022-09-20T10:28:50.342Z,23.07
2022-09-20T10:31:33.178Z,22.33
2022-09-20T10:34:19.996Z,21.66
2022-09-20T10:36:52.859Z,22.65
2022-09-20T10:39:26.504Z,24.71
2022-09-20T10:42:26.350Z,26.90
2022-09-20T10:45:09.101Z,28.93
2022-09-20T10:47:50.003Z,29.75
2022-09-20T10:50:29.457Z,30.12
2022-09-20T10:53:08.907Z,29.51
2022-09-20T10:55:45.351Z,28.42
2022-09-20T10:58:56.049Z,26.86
2022-09-20T11:01:31.354Z,27.80
2022-09-20T11:04:19.427Z,29.54
2022-09-20T11:06:56.055Z,30.82
2022-09-20T11:09:28.082Z,31.13
2022-09-20T11:12:01.291Z,30.32
2022-09-20T11:14:36.200Z,28.54
2022-09-20T11:17:09.481Z,26.88
2022-09-20T11:19:48.450Z,25.52
2022-09-20T11:22:19.832Z,24.44
2022-09-20T11:24:52.246Z,23.52
2022-09-20T11:27:25.534Z,22.72
2022-09-20T11:30:00.980Z,22.01
2022-09-20T11:32:36.597Z,21.48
2022-09-20T11:35:23.471Z,20.93
2022-09-20T11:37:58.596Z,20.56
2022-09-20T11:40:29.375Z,20.61
2022-09-20T11:42:59.957Z,22.38
2022-09-20T11:45:30.873Z,24.63
2022-09-20T11:48:04.650Z,26.54
2022-09-20T11:51:14.986Z,28.34
2022-09-20T11:53:58.628Z,29.90
2022-09-20T11:56:28.608Z,30.78
2022-09-20T11:58:58.459Z,31.49
2022-09-20T12:01:30.252Z,32.02
2022-09-20T12:04:27.939Z,32.45
2022-09-20T12:06:48.625Z,32.39
2022-09-20T12:09:26.425Z,31.05
2022-09-20T12:11:54.301Z,29.43
2022-09-20T12:14:27.342Z,27.84
2022-09-20T12:16:57.032Z,26.71
2022-09-20T12:19:39.061Z,25.73
2022-09-20T12:22:29.675Z,24.81
2022-09-20T12:25:34.900Z,23.90
2022-09-20T12:28:02.517Z,23.11
2022-09-20T12:30:30.107Z,22.45
2022-09-20T12:33:01.376Z,21.86
2022-09-20T12:36:00.896Z,21.28
2022-09-20T12:38:37.800Z,20.87
2022-09-20T12:41:09.384Z,20.47
2022-09-20T12:43:47.525Z,20.08
2022-09-20T12:46:24.454Z,19.80
2022-09-20T12:49:33.522Z,19.51
2022-09-20T12:52:19.032Z,19.11
2022-09-20T12:54:53.194Z,18.73
2022-09-20T12:57:32.053Z,18.36
2022-09-20T13:00:03.151Z,18.04
2022-09-20T13:02:57.497Z,17.75
2022-09-20T13:05:36.479Z,17.49
2022-09-20T13:08:11.218Z,17.30
2022-09-20T13:10:44.330Z,17.10
2022-09-20T13:13:29.470Z,16.93
2022-09-20T13:15:58.032Z,16.84
2022-09-20T13:18:27.930Z,16.81
2022-09-20T13:21:00.327Z,16.82
2022-09-20T13:23:28.914Z,16.88
2022-09-20T13:25:58.809Z,16.81
2022-09-20T13:28:33.258Z,16.71
2022-09-20T13:31:33.826Z,16.64
2022-09-20T13:34:14.988Z,16.59
2022-09-20T13:36:44.603Z,16.52
2022-09-20T13:39:25.513Z,16.45
2022-09-20T13:41:53.207Z,16.37
2022-09-20T13:44:21.037Z,16.26
2022-09-20T13:46:48.519Z,16.24
2022-09-20T13:49:20.779Z,16.19
2022-09-20T13:51:49.864Z,16.14
2022-09-20T13:54:27.249Z,16.09
2022-09-20T13:56:56.676Z,16.06
2022-09-20T13:59:25.099Z,16.08
2022-09-20T14:01:54.918Z,16.10
2022-09-20T14:04:25.571Z,16.12
2022-09-20T14:06:57.587Z,16.12
2022-09-20T14:09:30.861Z,16.14
2022-09-20T14:11:59.626Z,16.19
2022-09-20T14:14:27.933Z,16.18
2022-09-20T14:16:57.275Z,16.09
2022-09-20T14:19:31.154Z,16.03
2022-09-20T14:22:03.584Z,15.99
2022-09-20T14:24:32.951Z,16.00
2022-09-20T14:27:04.165Z,15.99
2022-09-20T14:29:39.977Z,16.01
2022-09-20T14:32:11.644Z,16.02
2022-09-20T14:34:40.767Z,16.00
2022-09-20T14:37:14.952Z,15.99
2022-09-20T14:39:49.902Z,16.00
2022-09-20T14:42:22.061Z,15.98
2022-09-20T14:44:52.748Z,15.96
2022-09-20T14:47:27.878Z,15.94
2022-09-20T14:49:55.856Z,15.92
2022-09-20T14:52:44.025Z,15.89
2022-09-20T14:55:21.331Z,15.86
2022-09-20T14:57:49.174Z,15.83
2022-09-20T15:00:19.461Z,15.80
2022-09-20T15:02:48.183Z,15.79
2022-09-20T15:05:21.684Z,15.77
2022-09-20T15:07:50.865Z,15.75
2022-09-20T15:10:18.502Z,15.76
2022-09-20T15:12:46.090Z,15.77
2022-09-20T15:15:18.833Z,15.80
2022-09-20T15:17:47.678Z,15.83
2022-09-20T15:20:23.200Z,15.83
2022-09-20T15:22:52.998Z,15.78
2022-09-20T15:25:22.185Z,15.75
2022-09-20T15:27:51.736Z,15.70
2022-09-20T15:30:20.977Z,15.63
2022-09-20T15:32:48.909Z,15.57
2022-09-20T15:35:16.554Z,15.51
2022-09-20T15:37:44.742Z,15.43
2022-09-20T15:40:13.747Z,15.36
2022-09-20T15:42:41.572Z,15.30
2022-09-20T15:45:11.185Z,15.28
2022-09-20T15:47:39.352Z,15.27
2022-09-20T15:50:09.360Z,15.23
2022-09-20T15:52:39.850Z,15.26
2022-09-20T15:55:08.616Z,15.31
2022-09-20T15:57:37.426Z,15.31
2022-09-20T16:00:05.757Z,15.28
2022-09-20T16:02:33.346Z,15.28
2022-09-20T16:05:02.020Z,15.25
2022-09-20T16:07:29.550Z,15.22
2022-09-20T16:09:57.909Z,15.19
2022-09-20T16:12:26.357Z,15.16
2022-09-20T16:14:55.150Z,15.14
2022-09-20T16:17:42.596Z,15.11
2022-09-20T16:20:10.107Z,15.04
2022-09-20T16:22:37.653Z,14.98
2022-09-20T16:25:06.690Z,14.95
2022-09-20T16:27:34.966Z,14.91
2022-09-20T16:30:04.824Z,14.90
2022-09-20T16:32:32.280Z,14.88
2022-09-20T16:35:01.505Z,14.85
2022-09-20T16:37:32.851Z,14.84
2022-09-20T16:40:00.649Z,14.82
2022-09-20T16:42:29.380Z,14.79
2022-09-20T16:44:57.131Z,14.72
2022-09-20T16:47:26.321Z,14.65
2022-09-20T16:49:54.741Z,14.61
2022-09-20T16:52:22.651Z,14.56
2022-09-20T16:54:50.413Z,14.43
2022-09-20T16:57:18.427Z,14.32
2022-09-20T16:59:46.562Z,14.24
2022-09-20T17:02:14.422Z,14.15
2022-09-20T17:04:43.665Z,14.07
2022-09-20T17:07:11.295Z,13.99
2022-09-20T17:09:38.738Z,13.94
2022-09-20T17:12:09.542Z,13.92
2022-09-20T17:14:38.397Z,13.94
2022-09-20T17:17:06.449Z,13.95
2022-09-20T17:19:34.004Z,13.90
2022-09-20T17:22:02.876Z,13.82
2022-09-20T17:24:30.846Z,13.74
2022-09-20T17:26:59.132Z,13.71
2022-09-20T17:29:27.618Z,13.64
2022-09-20T17:31:59.514Z,13.59
2022-09-20T17:34:29.356Z,13.55
2022-09-20T17:36:56.875Z,13.50
2022-09-20T17:39:25.751Z,13.50
2022-09-20T17:41:53.491Z,13.53
2022-09-20T17:44:21.000Z,13.52
2022-09-20T17:46:50.558Z,13.46
2022-09-20T17:49:19.897Z,13.41
2022-09-20T17:51:49.564Z,13.36
2022-09-20T17:54:17.830Z,13.30
2022-09-20T17:56:48.723Z,13.22
2022-09-20T17:59:17.679Z,13.16
2022-09-20T18:01:46.513Z,13.09
2022-09-20T18:04:14.214Z,13.04
2022-09-20T18:06:45.302Z,12.98
2022-09-20T18:09:15.305Z,12.92
2022-09-20T18:11:48.791Z,12.86
2022-09-20T18:14:17.488Z,12.81
2022-09-20T18:16:45.288Z,12.74
2022-09-20T18:19:14.151Z,12.69
2022-09-20T18:21:41.736Z,12.64
2022-09-20T18:24:10.808Z,12.59
2022-09-20T18:26:39.463Z,12.53
2022-09-20T18:29:11.208Z,12.47
2022-09-20T18:31:42.936Z,12.41
2022-09-20T18:34:12.130Z,12.36
2022-09-20T18:36:40.346Z,12.33
2022-09-20T18:39:08.895Z,12.30
2022-09-20T18:41:37.728Z,12.27
2022-09-20T18:44:07.582Z,12.28
2022-09-20T18:46:38.094Z,12.29
2022-09-20T18:49:09.286Z,12.25
2022-09-20T18:51:39.908Z,12.22
2022-09-20T18:54:10.093Z,12.21
2022-09-20T18:56:39.719Z,12.24
2022-09-20T18:59:11.330Z,12.28
2022-09-20T19:02:13.258Z,12.26
2022-09-20T19:05:05.638Z,12.27
2022-09-20T19:07:43.704Z,12.29
2022-09-20T19:10:21.342Z,12.29
2022-09-20T19:12:54.974Z,12.27
2022-09-20T19:15:40.999Z,12.27
2022-09-20T19:18:32.849Z,12.28
2022-09-20T19:21:26.890Z,12.24
2022-09-20T19:24:23.750Z,12.16
2022-09-20T19:26:54.738Z,12.09
2022-09-20T19:29:38.152Z,12.04
2022-09-20T19:32:06.691Z,12.00
2022-09-20T19:34:36.207Z,11.96
2022-09-20T19:37:18.372Z,11.95
2022-09-20T19:40:00.197Z,11.93
2022-09-20T19:42:40.759Z,11.89
2022-09-20T19:45:17.200Z,11.89
2022-09-20T19:47:53.955Z,11.86
2022-09-20T19:50:29.470Z,11.82
2022-09-20T19:52:57.457Z,11.81
2022-09-20T19:55:25.994Z,11.83
2022-09-20T19:57:54.551Z,11.86
2022-09-20T20:00:23.125Z,11.88
2022-09-20T20:02:50.974Z,11.90
2022-09-20T20:05:20.673Z,11.85
2022-09-20T20:07:57.698Z,11.81
2022-09-20T20:10:34.671Z,11.82
2022-09-20T20:13:31.538Z,11.86
2022-09-20T20:16:03.845Z,11.88
2022-09-20T20:18:42.146Z,11.89
2022-09-20T20:21:18.148Z,11.88
2022-09-20T20:24:04.657Z,11.89
2022-09-20T20:26:32.619Z,11.93
2022-09-20T20:29:00.163Z,12.00
2022-09-20T20:31:29.455Z,12.00
2022-09-20T20:33:57.267Z,12.01
2022-09-20T20:36:24.755Z,11.99
2022-09-20T20:38:55.061Z,12.00
2022-09-20T20:41:23.643Z,12.00
2022-09-20T20:43:56.254Z,12.03
2022-09-20T20:46:24.347Z,12.06
2022-09-20T20:48:52.071Z,12.09
2022-09-20T20:51:21.580Z,12.07
2022-09-20T20:53:50.586Z,12.07
2022-09-20T20:56:21.853Z,12.11
2022-09-20T20:58:50.287Z,12.16
2022-09-20T21:01:19.938Z,12.14
2022-09-20T21:03:49.339Z,12.16
2022-09-20T21:06:17.384Z,12.15
2022-09-20T21:08:49.301Z,12.08
2022-09-20T21:11:21.894Z,12.01
2022-09-20T21:13:49.526Z,11.94
2022-09-20T21:16:19.214Z,11.91
2022-09-20T21:18:48.878Z,11.88
2022-09-20T21:21:18.448Z,11.81
2022-09-20T21:23:47.275Z,11.71
2022-09-20T21:26:16.193Z,11.63
2022-09-20T21:28:48.757Z,11.56
2022-09-20T21:31:16.645Z,11.44
2022-09-20T21:33:44.973Z,11.31
2022-09-20T21:36:14.445Z,11.20
2022-09-20T21:38:42.787Z,11.10
2022-09-20T21:41:12.243Z,11.01
2022-09-20T21:43:42.022Z,10.90
2022-09-20T21:46:14.889Z,10.79
2022-09-20T21:48:42.500Z,10.67
2022-09-20T21:51:11.724Z,10.60
2022-09-20T21:53:40.239Z,10.57
2022-09-20T21:56:09.761Z,10.53
2022-09-20T21:58:38.803Z,10.51
2022-09-20T22:01:10.014Z,10.44
2022-09-20T22:03:40.502Z,10.39
2022-09-20T22:06:10.579Z,10.34
2022-09-20T22:08:38.828Z,10.26
2022-09-20T22:11:11.097Z,10.19
2022-09-20T22:13:42.210Z,10.15
2022-09-20T22:16:12.481Z,10.11
2022-09-20T22:18:43.393Z,10.07
2022-09-20T22:21:13.325Z,10.03
2022-09-20T22:23:41.702Z,10.00
2022-09-20T22:26:11.801Z,9.93
2022-09-20T22:28:39.575Z,9.86
2022-09-20T22:31:09.721Z,9.79
2022-09-20T22:33:41.013Z,9.75
2022-09-20T22:36:11.117Z,9.73
2022-09-20T22:38:38.625Z,9.68
2022-09-20T22:41:06.138Z,9.63
2022-09-20T22:43:34.740Z,9.60
2022-09-20T22:46:04.484Z,9.59
2022-09-20T22:48:32.767Z,9.63
2022-09-20T22:51:01.595Z,9.65
2022-09-20T22:53:31.506Z,9.61
2022-09-20T22:56:10.760Z,9.54
2022-09-20T22:58:40.876Z,9.46
2022-09-20T23:01:10.791Z,9.44
2022-09-20T23:03:40.000Z,9.40
2022-09-20T23:06:14.459Z,9.35
2022-09-20T23:08:43.642Z,9.31
2022-09-20T23:11:11.361Z,9.26
2022-09-20T23:13:39.334Z,9.20
2022-09-20T23:16:14.681Z,9.15
2022-09-20T23:18:42.746Z,9.13
2022-09-20T23:21:10.234Z,9.08
2022-09-20T23:23:37.880Z,9.03
2022-09-20T23:26:08.611Z,8.99
2022-09-20T23:28:36.991Z,8.96
2022-09-20T23:31:06.004Z,8.93
2022-09-20T23:33:34.263Z,8.89
2022-09-20T23:36:03.531Z,8.87
2022-09-20T23:38:31.011Z,8.84
2022-09-20T23:41:03.339Z,8.80
2022-09-20T23:43:32.598Z,8.76
2022-09-20T23:46:00.211Z,8.71
2022-09-20T23:48:28.047Z,8.65
2022-09-20T23:50:56.110Z,8.57
2022-09-20T23:53:23.852Z,8.54
2022-09-20T23:55:51.850Z,8.52
2022-09-20T23:58:19.374Z,8.50
